createdAt,value
2023-01-18T00:02:49.370Z,33.85
2023-01-18T00:05:51.796Z,35.88
2023-01-18T00:08:57.034Z,34.08
2023-01-18T00:11:59.304Z,37.25
2023-01-18T00:15:01.629Z,40.65
2023-01-18T00:18:04.590Z,39.83
2023-01-18T00:21:09.569Z,38.13
2023-01-18T00:24:14.992Z,39.00
2023-01-18T00:27:17.416Z,37.05
2023-01-18T00:30:22.387Z,39.50
2023-01-18T00:33:24.908Z,44.15
2023-01-18T00:36:27.275Z,43.97
2023-01-18T00:39:29.579Z,49.47
2023-01-18T00:42:51.374Z,43.72
2023-01-18T00:45:53.723Z,42.58
2023-01-18T00:48:57.423Z,45.42
2023-01-18T00:51:59.709Z,44.95
2023-01-18T00:55:04.030Z,44.25
2023-01-18T00:58:06.308Z,48.33
2023-01-18T01:01:10.207Z,49.35
2023-01-18T01:04:31.300Z,41.35
2023-01-18T01:07:33.690Z,53.22
2023-01-18T01:10:36.364Z,45.58
2023-01-18T01:13:57.491Z,39.55
2023-01-18T01:17:18.486Z,45.28
2023-01-18T01:20:40.427Z,45.55
2023-01-18T01:24:01.777Z,51.00
2023-01-18T01:27:04.158Z,45.15
2023-01-18T01:30:07.264Z,44.13
2023-01-18T01:33:09.574Z,48.45
2023-01-18T01:36:14.596Z,51.75
2023-01-18T01:39:18.007Z,47.03
2023-01-18T01:42:20.285Z,47.45
2023-01-18T01:45:24.373Z,53.60
2023-01-18T01:48:26.700Z,41.85
2023-01-18T01:51:29.292Z,43.30
2023-01-18T01:54:36.889Z,42.47
2023-01-18T01:58:09.210Z,45.55
2023-01-18T02:01:11.667Z,44.22
2023-01-18T02:04:14.170Z,44.70
2023-01-18T02:07:16.416Z,42.95
2023-01-18T02:10:18.875Z,38.33
2023-01-18T02:13:23.842Z,39.35
2023-01-18T02:16:59.242Z,51.00
2023-01-18T02:20:26.891Z,41.58
2023-01-18T02:23:35.091Z,39.90
2023-01-18T02:27:03.860Z,37.40
2023-01-18T02:30:14.691Z,41.58
2023-01-18T02:33:39.676Z,41.90
2023-01-18T02:36:53.463Z,39.72
2023-01-18T02:39:58.549Z,38.58
2023-01-18T02:43:20.949Z,44.25
2023-01-18T02:46:36.105Z,37.95
2023-01-18T02:49:38.389Z,40.63
2023-01-18T02:52:40.694Z,39.42
2023-01-18T02:56:02.798Z,51.15
2023-01-18T02:59:16.788Z,51.88
2023-01-18T03:02:21.875Z,42.75
2023-01-18T03:05:25.251Z,43.30
2023-01-18T03:08:41.783Z,37.85
2023-01-18T03:11:52.871Z,43.85
2023-01-18T03:15:08.666Z,43.42
2023-01-18T03:18:10.899Z,39.83
2023-01-18T03:21:13.169Z,39.95
2023-01-18T03:24:17.231Z,40.25
2023-01-18T03:27:38.205Z,43.28
2023-01-18T03:31:00.166Z,46.42
2023-01-18T03:34:25.467Z,41.22
2023-01-18T03:37:30.570Z,40.13
2023-01-18T03:40:32.954Z,37.22
2023-01-18T03:43:37.921Z,39.05
2023-01-18T03:46:41.341Z,42.15
2023-01-18T03:49:43.703Z,54.67
2023-01-18T03:52:51.123Z,39.50
2023-01-18T03:55:57.750Z,44.88
2023-01-18T03:59:01.711Z,43.22
2023-01-18T04:02:06.234Z,36.85
2023-01-18T04:05:08.995Z,39.38
2023-01-18T04:08:11.379Z,38.20
2023-01-18T04:11:13.684Z,39.72
2023-01-18T04:14:16.132Z,40.03
2023-01-18T04:17:18.440Z,48.50
2023-01-18T04:20:20.884Z,38.45
2023-01-18T04:23:24.185Z,44.30
2023-01-18T04:26:26.678Z,42.35
2023-01-18T04:29:29.490Z,46.45
2023-01-18T04:32:32.801Z,37.97
2023-01-18T04:35:36.388Z,38.20
2023-01-18T04:38:38.687Z,33.90
2023-01-18T04:41:40.946Z,40.17
2023-01-18T04:44:43.332Z,40.28
2023-01-18T04:47:45.792Z,35.70
2023-01-18T04:50:48.660Z,39.53
2023-01-18T04:53:51.766Z,36.95
2023-01-18T04:56:54.366Z,39.05
2023-01-18T04:59:56.655Z,33.33
2023-01-18T05:02:59.310Z,37.88
2023-01-18T05:06:01.799Z,26.93
2023-01-18T05:09:04.333Z,37.15
2023-01-18T05:12:06.862Z,35.17
2023-01-18T05:15:09.963Z,39.10
2023-01-18T05:18:12.284Z,29.20
2023-01-18T05:21:15.134Z,37.85
2023-01-18T05:24:17.543Z,25.67
2023-01-18T05:27:20.075Z,38.25
2023-01-18T05:30:22.310Z,41.72
2023-01-18T05:33:24.576Z,39.30
2023-01-18T05:36:26.902Z,38.08
2023-01-18T05:39:29.516Z,39.22
2023-01-18T05:42:31.813Z,37.55
2023-01-18T05:45:34.833Z,34.45
2023-01-18T05:48:37.131Z,30.55
2023-01-18T05:51:39.519Z,34.15
2023-01-18T05:54:42.012Z,36.22
2023-01-18T05:57:44.864Z,39.10
2023-01-18T06:00:47.668Z,25.08
2023-01-18T06:03:50.193Z,37.92
2023-01-18T06:06:52.468Z,41.58
2023-01-18T06:09:54.801Z,35.83
2023-01-18T06:12:57.368Z,41.17
2023-01-18T06:16:00.892Z,32.07
2023-01-18T06:19:03.174Z,35.03
2023-01-18T06:22:05.624Z,41.28
2023-01-18T06:25:10.160Z,44.85
2023-01-18T06:28:12.527Z,44.88
2023-01-18T06:31:17.902Z,48.47
2023-01-18T06:34:20.289Z,70.22
2023-01-18T06:37:22.661Z,43.50
2023-01-18T06:40:25.012Z,58.30
2023-01-18T06:43:27.412Z,60.83
2023-01-18T06:46:30.001Z,62.25
2023-01-18T06:49:32.392Z,61.22
2023-01-18T06:52:34.714Z,54.08
2023-01-18T06:55:37.150Z,47.60
2023-01-18T06:58:39.438Z,59.45
2023-01-18T07:01:41.882Z,64.60
2023-01-18T07:04:45.519Z,118.93
2023-01-18T07:07:47.941Z,98.68
2023-01-18T07:10:52.668Z,101.20
2023-01-18T07:13:55.065Z,77.55
2023-01-18T07:16:57.365Z,48.67
2023-01-18T07:19:59.759Z,49.88
2023-01-18T07:23:02.776Z,56.38
2023-01-18T07:26:10.158Z,44.13
2023-01-18T07:29:12.896Z,41.45
2023-01-18T07:32:15.253Z,52.75
2023-01-18T07:35:20.264Z,42.50
2023-01-18T07:38:23.223Z,46.63
2023-01-18T07:41:26.334Z,58.85
2023-01-18T07:44:29.816Z,69.45
2023-01-18T07:47:32.218Z,65.97
2023-01-18T07:50:34.564Z,79.82
2023-01-18T07:53:38.163Z,62.00
2023-01-18T07:56:40.667Z,52.70
2023-01-18T07:59:43.047Z,60.00
2023-01-18T08:02:45.417Z,53.67
2023-01-18T08:05:48.273Z,61.65
2023-01-18T08:08:50.932Z,57.10
2023-01-18T08:11:53.308Z,47.70
2023-01-18T08:14:55.590Z,39.20
2023-01-18T08:17:57.972Z,43.72
2023-01-18T08:21:00.396Z,39.85
2023-01-18T08:24:02.879Z,36.30
2023-01-18T08:27:05.306Z,43.17
2023-01-18T08:30:08.425Z,42.05
2023-01-18T08:33:11.291Z,31.13
2023-01-18T08:36:21.746Z,44.85
2023-01-18T08:39:24.230Z,39.58
2023-01-18T08:42:26.848Z,39.05
2023-01-18T08:45:29.351Z,67.85
2023-01-18T08:48:31.766Z,29.55
2023-01-18T08:51:34.732Z,32.83
2023-01-18T08:54:37.226Z,29.03
2023-01-18T08:57:39.558Z,51.38
2023-01-18T09:00:41.859Z,58.97
2023-01-18T09:03:45.184Z,54.78
2023-01-18T09:06:52.179Z,43.33
2023-01-18T09:09:54.513Z,54.30
2023-01-18T09:12:57.193Z,44.05
2023-01-18T09:16:10.724Z,65.67
2023-01-18T09:19:13.299Z,49.63
2023-01-18T09:22:15.600Z,50.20
2023-01-18T09:25:18.569Z,54.00
2023-01-18T09:28:21.037Z,42.17
2023-01-18T09:31:26.021Z,38.10
2023-01-18T09:34:28.406Z,40.28
2023-01-18T09:37:31.584Z,44.85
2023-01-18T09:40:52.802Z,46.50
2023-01-18T09:43:58.146Z,48.28
2023-01-18T09:47:12.586Z,48.20
2023-01-18T09:50:17.515Z,50.72
2023-01-18T09:53:28.712Z,57.70
2023-01-18T09:56:46.590Z,49.70
2023-01-18T09:59:54.936Z,56.97
2023-01-18T10:03:36.479Z,71.95
2023-01-18T10:06:48.958Z,59.70
2023-01-18T10:09:55.167Z,59.97
2023-01-18T10:13:38.017Z,65.97
2023-01-18T10:16:40.490Z,61.53
2023-01-18T10:19:42.839Z,58.42
2023-01-18T10:22:59.969Z,47.55
2023-01-18T10:26:04.833Z,42.90
2023-01-18T10:29:35.557Z,46.40
2023-01-18T10:32:38.312Z,44.25
2023-01-18T10:35:45.455Z,41.28
2023-01-18T10:38:48.248Z,52.30
2023-01-18T10:41:50.915Z,54.75
2023-01-18T10:44:53.295Z,46.50
2023-01-18T10:47:56.870Z,41.38
2023-01-18T10:51:06.072Z,52.70
2023-01-18T10:54:27.482Z,53.58
2023-01-18T10:57:36.440Z,41.08
2023-01-18T11:00:38.724Z,43.88
2023-01-18T11:03:47.360Z,43.80
2023-01-18T11:06:52.503Z,42.10
2023-01-18T11:09:59.602Z,43.88
2023-01-18T11:13:02.035Z,46.25
2023-01-18T11:16:10.642Z,37.70
2023-01-18T11:19:18.372Z,41.70
2023-01-18T11:22:31.424Z,38.70
2023-01-18T11:25:57.131Z,37.72
2023-01-18T11:29:01.048Z,40.90
2023-01-18T11:32:06.751Z,34.20
2023-01-18T11:35:10.747Z,39.38
2023-01-18T11:38:18.971Z,39.72
2023-01-18T11:41:23.666Z,44.72
2023-01-18T11:44:28.028Z,46.95
2023-01-18T11:48:08.977Z,38.13
2023-01-18T11:51:23.598Z,31.98
2023-01-18T11:54:37.055Z,35.08
2023-01-18T11:57:39.475Z,39.45
2023-01-18T12:01:02.678Z,35.53
2023-01-18T12:04:12.068Z,34.58
2023-01-18T12:07:48.803Z,34.80
2023-01-18T12:11:16.012Z,32.30
2023-01-18T12:14:40.633Z,37.00
2023-01-18T12:18:12.493Z,35.30
2023-01-18T12:21:51.446Z,37.60
2023-01-18T12:25:02.788Z,36.80
2023-01-18T12:28:35.570Z,36.92
2023-01-18T12:32:04.047Z,35.90
2023-01-18T12:35:43.460Z,37.33
2023-01-18T12:38:51.846Z,36.15
2023-01-18T12:41:58.566Z,35.40
2023-01-18T12:45:05.981Z,34.78
2023-01-18T12:48:36.164Z,34.83
2023-01-18T12:51:39.539Z,32.47
2023-01-18T12:55:02.865Z,30.38
2023-01-18T12:58:05.965Z,33.42
2023-01-18T13:01:14.425Z,25.88
2023-01-18T13:04:30.243Z,40.53
2023-01-18T13:07:36.407Z,45.97
2023-01-18T13:10:38.992Z,39.30
2023-01-18T13:13:42.708Z,47.13
2023-01-18T13:16:50.895Z,51.65
2023-01-18T13:20:16.548Z,46.40
2023-01-18T13:23:32.179Z,45.78
2023-01-18T13:26:35.498Z,48.72
2023-01-18T13:29:38.338Z,47.65
2023-01-18T13:32:42.500Z,52.72
2023-01-18T13:35:55.153Z,49.13
2023-01-18T13:39:01.315Z,55.97
2023-01-18T13:42:26.826Z,46.35
2023-01-18T13:45:31.029Z,47.95
2023-01-18T13:48:45.643Z,47.88
2023-01-18T13:51:49.592Z,45.75
2023-01-18T13:54:54.690Z,46.38
2023-01-18T13:57:58.339Z,44.58
2023-01-18T14:01:03.606Z,43.50
2023-01-18T14:04:24.827Z,46.15
2023-01-18T14:07:27.521Z,44.47
2023-01-18T14:10:37.175Z,41.13
2023-01-18T14:13:45.448Z,42.78
2023-01-18T14:17:13.493Z,42.20
2023-01-18T14:20:29.914Z,39.38
2023-01-18T14:24:06.243Z,43.10
2023-01-18T14:27:15.038Z,39.92
2023-01-18T14:30:30.695Z,39.95
2023-01-18T14:33:38.225Z,41.40
2023-01-18T14:36:40.488Z,43.75
2023-01-18T14:39:42.837Z,42.00
2023-01-18T14:42:56.307Z,41.08
2023-01-18T14:46:04.198Z,42.38
2023-01-18T14:49:08.923Z,39.00
2023-01-18T14:52:19.221Z,39.25
2023-01-18T14:55:41.846Z,41.00
2023-01-18T14:58:52.603Z,40.47
2023-01-18T15:01:58.184Z,38.58
2023-01-18T15:05:20.030Z,44.38
2023-01-18T15:08:22.463Z,41.28
2023-01-18T15:11:25.304Z,39.70
2023-01-18T15:14:31.403Z,41.47
2023-01-18T15:17:34.122Z,42.50
2023-01-18T15:20:37.694Z,46.35
2023-01-18T15:23:41.313Z,44.83
2023-01-18T15:26:46.962Z,38.40
2023-01-18T15:29:54.779Z,45.05
2023-01-18T15:33:02.127Z,46.83
2023-01-18T15:36:05.081Z,36.08
2023-01-18T15:39:09.757Z,42.00
2023-01-18T15:42:14.014Z,45.10
2023-01-18T15:45:25.307Z,41.00
2023-01-18T15:48:32.049Z,42.08
2023-01-18T15:51:52.868Z,34.65
2023-01-18T15:54:55.635Z,40.92
2023-01-18T15:58:01.079Z,40.50
2023-01-18T16:01:28.091Z,38.42
2023-01-18T16:04:30.794Z,37.45
2023-01-18T16:07:42.197Z,33.88
2023-01-18T16:10:52.590Z,34.72
2023-01-18T16:14:00.303Z,34.90
2023-01-18T16:17:18.314Z,39.92
2023-01-18T16:20:20.798Z,40.08
2023-01-18T16:23:23.235Z,38.63
2023-01-18T16:26:30.019Z,36.83
2023-01-18T16:29:40.286Z,39.53
2023-01-18T16:32:42.668Z,40.92
2023-01-18T16:35:48.788Z,43.13
2023-01-18T16:38:51.087Z,55.00
2023-01-18T16:41:57.393Z,44.35
2023-01-18T16:44:59.686Z,35.55
2023-01-18T16:48:02.585Z,39.28
2023-01-18T16:51:12.763Z,27.93
2023-01-18T16:54:15.192Z,36.10
2023-01-18T16:57:17.492Z,30.75
2023-01-18T17:00:22.454Z,33.45
2023-01-18T17:03:25.275Z,30.92
2023-01-18T17:06:29.389Z,37.47
2023-01-18T17:12:49.844Z,32.72
2023-01-18T17:15:52.773Z,37.00
2023-01-18T17:18:55.102Z,35.75
2023-01-18T17:21:58.805Z,34.20
2023-01-18T17:25:01.253Z,35.88
2023-01-18T17:28:04.522Z,33.85
2023-01-18T17:31:06.879Z,25.03
2023-01-18T17:34:10.589Z,34.50
2023-01-18T17:37:13.457Z,35.90
2023-01-18T17:40:23.572Z,38.17
2023-01-18T17:43:34.218Z,37.47
2023-01-18T17:46:37.175Z,40.58
2023-01-18T17:49:39.580Z,35.95
2023-01-18T17:52:41.970Z,37.85
2023-01-18T17:55:44.323Z,33.83
2023-01-18T17:58:48.072Z,36.80
2023-01-18T18:01:50.770Z,40.67
2023-01-18T18:04:53.213Z,33.35
2023-01-18T18:07:55.615Z,37.50
2023-01-18T18:10:59.996Z,42.05
2023-01-18T18:14:03.197Z,36.28
2023-01-18T18:17:06.408Z,36.78
2023-01-18T18:20:10.900Z,43.73
2023-01-18T18:23:13.673Z,41.80
2023-01-18T18:26:16.359Z,41.97
2023-01-18T18:29:18.985Z,47.97
2023-01-18T18:32:21.357Z,53.45
2023-01-18T18:35:26.140Z,47.90
2023-01-18T18:38:28.863Z,46.33
2023-01-18T18:41:31.419Z,44.95
2023-01-18T18:44:33.774Z,49.40
2023-01-18T18:47:36.041Z,45.35
2023-01-18T18:50:38.318Z,48.95
2023-01-18T18:53:41.107Z,50.15
2023-01-18T18:56:43.647Z,49.75
2023-01-18T18:59:46.126Z,51.33
2023-01-18T19:02:48.610Z,54.65
2023-01-18T19:05:51.098Z,48.70
2023-01-18T19:08:53.959Z,48.92
2023-01-18T19:11:56.191Z,53.88
2023-01-18T19:14:59.276Z,53.15
2023-01-18T19:18:01.574Z,41.57
2023-01-18T19:21:04.377Z,53.90
2023-01-18T19:24:06.802Z,58.53
2023-01-18T19:27:09.124Z,58.55
2023-01-18T19:30:21.574Z,55.97
2023-01-18T19:33:23.968Z,58.17
2023-01-18T19:36:26.587Z,57.53
2023-01-18T19:39:29.073Z,58.33
2023-01-18T19:42:31.474Z,72.88
2023-01-18T19:45:33.970Z,69.13
2023-01-18T19:48:38.129Z,59.15
2023-01-18T19:51:41.324Z,67.60
2023-01-18T19:54:43.712Z,43.00
2023-01-18T19:57:46.191Z,58.95
2023-01-18T20:00:48.542Z,66.13
2023-01-18T20:03:50.922Z,63.83
2023-01-18T20:06:53.324Z,67.47
2023-01-18T20:09:55.712Z,61.65
2023-01-18T20:12:59.333Z,67.18
2023-01-18T20:19:04.923Z,56.13
2023-01-18T20:22:07.214Z,57.47
2023-01-18T20:25:11.372Z,65.00
2023-01-18T20:28:13.802Z,56.13
2023-01-18T20:31:16.237Z,85.88
2023-01-18T20:34:18.628Z,135.18
2023-01-18T20:37:22.165Z,62.90
2023-01-18T20:40:24.695Z,51.83
2023-01-18T20:43:27.179Z,41.78
2023-01-18T20:46:29.643Z,47.78
2023-01-18T20:49:39.345Z,51.90
2023-01-18T20:52:42.020Z,48.05
2023-01-18T20:55:44.397Z,61.40
2023-01-18T20:58:46.743Z,48.00
2023-01-18T21:01:49.197Z,53.45
2023-01-18T21:04:51.541Z,46.47
2023-01-18T21:07:54.391Z,48.53
2023-01-18T21:10:56.696Z,52.72
2023-01-18T21:13:59.409Z,46.55
2023-01-18T21:17:01.760Z,49.88
2023-01-18T21:20:04.674Z,50.30
2023-01-18T21:23:07.011Z,49.70
2023-01-18T21:26:12.133Z,48.67
2023-01-18T21:29:14.488Z,46.20
2023-01-18T21:32:16.799Z,49.40
2023-01-18T21:35:19.166Z,50.35
2023-01-18T21:38:27.208Z,52.95
2023-01-18T21:41:48.412Z,57.40
2023-01-18T21:45:09.323Z,50.67
2023-01-18T21:48:11.635Z,56.13
2023-01-18T21:51:32.857Z,48.70
2023-01-18T21:54:35.111Z,52.97
2023-01-18T21:57:38.772Z,53.53
2023-01-18T22:00:41.293Z,53.83
2023-01-18T22:04:03.520Z,56.53
2023-01-18T22:07:05.761Z,54.25
2023-01-18T22:10:08.483Z,49.95
2023-01-18T22:13:10.735Z,46.20
2023-01-18T22:16:13.021Z,51.75
2023-01-18T22:19:15.566Z,54.30
2023-01-18T22:22:17.879Z,62.25
2023-01-18T22:25:20.168Z,52.88
2023-01-18T22:28:22.789Z,51.17
2023-01-18T22:31:25.695Z,59.05
2023-01-18T22:34:28.349Z,49.65
2023-01-18T22:37:31.329Z,55.58
2023-01-18T22:40:33.834Z,39.23
2023-01-18T22:43:36.540Z,59.25
2023-01-18T22:46:38.849Z,51.33
2023-01-18T22:49:41.306Z,46.13
2023-01-18T22:52:43.705Z,49.75
2023-01-18T22:55:46.042Z,47.25
2023-01-18T22:58:49.147Z,49.60
2023-01-18T23:01:51.429Z,37.28
2023-01-18T23:04:54.531Z,54.20
2023-01-18T23:07:56.873Z,43.33
2023-01-18T23:10:59.201Z,54.22
2023-01-18T23:14:20.231Z,49.13
2023-01-18T23:17:40.754Z,50.55
2023-01-18T23:20:43.011Z,54.55
2023-01-18T23:23:45.352Z,47.63
2023-01-18T23:26:47.924Z,47.17
2023-01-18T23:29:56.645Z,49.63
2023-01-18T23:32:59.671Z,49.55
2023-01-18T23:36:02.022Z,39.92
2023-01-18T23:39:23.646Z,48.20
2023-01-18T23:42:44.400Z,47.78
2023-01-18T23:46:05.680Z,51.28
2023-01-18T23:49:26.702Z,47.80
2023-01-18T23:52:47.839Z,52.22
2023-01-18T23:55:53.467Z,56.13
2023-01-18T23:58:56.647Z,54.83
